createdAt,value
2023-05-05T00:00:57.185Z,15.70
2023-05-05T00:03:25.074Z,15.80
2023-05-05T00:05:54.425Z,15.50
2023-05-05T00:08:22.401Z,15.60
2023-05-05T00:10:50.686Z,15.40
2023-05-05T00:13:18.276Z,15.30
2023-05-05T00:15:46.825Z,15.30
2023-05-05T00:18:16.407Z,15.20
2023-05-05T00:20:43.984Z,15.30
2023-05-05T00:23:10.930Z,15.10
2023-05-05T00:25:37.822Z,15.10
2023-05-05T00:28:04.939Z,15.20
2023-05-05T00:30:31.813Z,15.20
2023-05-05T00:32:59.614Z,15.10
2023-05-05T00:35:26.973Z,15.10
2023-05-05T00:37:53.748Z,15.10
2023-05-05T00:40:20.561Z,15.10
2023-05-05T00:42:50.707Z,15.20
2023-05-05T00:45:18.527Z,15.20
2023-05-05T00:47:51.365Z,15.10
2023-05-05T00:50:26.302Z,15.50
2023-05-05T00:53:00.975Z,15.30
2023-05-05T00:55:29.700Z,15.30
2023-05-05T00:57:58.601Z,15.50
2023-05-05T01:00:26.391Z,15.70
2023-05-05T01:02:53.363Z,15.70
2023-05-05T01:05:22.532Z,16.10
2023-05-05T01:08:15.854Z,16.00
2023-05-05T01:10:46.912Z,16.10
2023-05-05T01:13:42.819Z,15.90
2023-05-05T01:16:17.929Z,16.10
2023-05-05T01:18:48.098Z,16.00
2023-05-05T01:21:40.349Z,15.90
2023-05-05T01:24:26.056Z,15.70
2023-05-05T01:27:11.614Z,15.70
2023-05-05T01:29:50.505Z,16.00
2023-05-05T01:32:24.041Z,16.10
2023-05-05T01:35:02.033Z,16.30
2023-05-05T01:37:37.994Z,16.30
2023-05-05T01:40:08.236Z,16.10
2023-05-05T01:42:38.003Z,15.90
2023-05-05T01:45:09.338Z,15.90
2023-05-05T01:47:38.172Z,15.70
2023-05-05T01:50:08.246Z,16.00
2023-05-05T01:52:37.594Z,16.40
2023-05-05T01:55:06.520Z,16.60
2023-05-05T01:57:33.452Z,16.40
2023-05-05T02:00:03.530Z,16.60
2023-05-05T02:02:32.070Z,16.70
2023-05-05T02:05:00.104Z,16.20
2023-05-05T02:07:28.049Z,16.20
2023-05-05T02:09:56.420Z,15.90
2023-05-05T02:12:23.921Z,15.80
2023-05-05T02:14:52.197Z,16.20
2023-05-05T02:17:20.370Z,16.30
2023-05-05T02:19:50.324Z,15.90
2023-05-05T02:22:17.109Z,16.30
2023-05-05T02:24:44.616Z,15.90
2023-05-05T02:27:12.261Z,15.90
2023-05-05T02:29:46.847Z,15.60
2023-05-05T02:32:22.708Z,15.50
2023-05-05T02:34:51.972Z,15.70
2023-05-05T02:37:24.014Z,15.70
2023-05-05T02:39:58.911Z,15.60
2023-05-05T02:42:36.509Z,15.50
2023-05-05T02:45:09.476Z,15.50
2023-05-05T02:47:36.951Z,15.80
2023-05-05T02:50:10.563Z,16.00
2023-05-05T02:52:38.002Z,15.40
2023-05-05T02:55:06.042Z,15.20
2023-05-05T02:57:44.608Z,15.40
2023-05-05T03:00:24.274Z,15.30
2023-05-05T03:03:09.301Z,15.40
2023-05-05T03:05:43.932Z,15.40
2023-05-05T03:08:16.836Z,15.50
2023-05-05T03:10:48.063Z,15.40
2023-05-05T03:13:18.567Z,15.10
2023-05-05T03:15:49.221Z,15.20
2023-05-05T03:18:18.160Z,15.20
2023-05-05T03:20:45.385Z,15.30
2023-05-05T03:23:15.519Z,15.80
2023-05-05T03:25:45.915Z,15.70
2023-05-05T03:28:13.624Z,15.70
2023-05-05T03:30:41.157Z,16.30
2023-05-05T03:33:10.030Z,16.10
2023-05-05T03:35:36.694Z,15.90
2023-05-05T03:38:03.494Z,15.70
2023-05-05T03:40:43.021Z,15.20
2023-05-05T03:43:10.706Z,14.80
2023-05-05T03:45:37.735Z,14.60
2023-05-05T03:48:05.052Z,14.50
2023-05-05T03:50:31.849Z,14.60
2023-05-05T03:52:58.556Z,14.30
2023-05-05T03:55:25.830Z,14.40
2023-05-05T03:57:52.522Z,14.50
2023-05-05T04:00:19.541Z,14.50
2023-05-05T04:02:46.453Z,14.30
2023-05-05T04:05:13.176Z,14.40
2023-05-05T04:07:39.848Z,14.70
2023-05-05T04:10:07.656Z,14.50
2023-05-05T04:12:34.590Z,14.30
2023-05-05T04:15:01.304Z,14.10
2023-05-05T04:17:28.031Z,14.40
2023-05-05T04:19:54.810Z,14.20
2023-05-05T04:22:21.510Z,14.20
2023-05-05T04:24:48.264Z,14.20
2023-05-05T04:27:15.001Z,14.10
2023-05-05T04:29:41.827Z,14.00
2023-05-05T04:32:08.536Z,14.00
2023-05-05T04:34:35.264Z,13.90
2023-05-05T04:37:01.898Z,14.10
2023-05-05T04:39:29.053Z,14.00
2023-05-05T04:41:55.714Z,13.90
2023-05-05T04:44:22.368Z,13.80
2023-05-05T04:46:49.142Z,13.90
2023-05-05T04:49:16.014Z,13.80
2023-05-05T04:51:42.820Z,13.70
2023-05-05T04:54:09.766Z,13.70
2023-05-05T04:56:37.133Z,13.90
2023-05-05T04:59:03.883Z,14.40
2023-05-05T05:01:31.691Z,14.60
2023-05-05T05:03:58.706Z,14.90
2023-05-05T05:06:25.822Z,15.20
2023-05-05T05:08:52.555Z,15.60
2023-05-05T05:11:19.592Z,16.00
2023-05-05T05:13:46.310Z,16.20
2023-05-05T05:16:14.524Z,16.60
2023-05-05T05:18:43.673Z,17.20
2023-05-05T05:21:10.427Z,17.50
2023-05-05T05:23:37.250Z,17.70
2023-05-05T05:26:05.205Z,17.80
2023-05-05T05:28:31.968Z,18.00
2023-05-05T05:30:58.825Z,18.20
2023-05-05T05:33:25.923Z,18.20
2023-05-05T05:35:52.668Z,18.40
2023-05-05T05:38:19.517Z,19.20
2023-05-05T05:40:46.462Z,19.50
2023-05-05T05:43:13.141Z,19.30
2023-05-05T05:45:40.514Z,19.50
2023-05-05T05:48:07.311Z,19.50
2023-05-05T05:50:35.819Z,20.30
2023-05-05T05:53:02.669Z,20.10
2023-05-05T05:55:29.433Z,20.00
2023-05-05T05:57:56.160Z,20.50
2023-05-05T06:00:22.962Z,20.80
2023-05-05T06:02:51.380Z,21.10
2023-05-05T06:05:18.358Z,21.10
2023-05-05T06:07:45.090Z,22.00
2023-05-05T06:10:26.770Z,22.20
2023-05-05T06:12:54.967Z,21.40
2023-05-05T06:15:21.766Z,21.50
2023-05-05T06:17:48.591Z,22.10
2023-05-05T06:20:15.359Z,22.60
2023-05-05T06:22:42.094Z,23.10
2023-05-05T06:25:09.072Z,23.80
2023-05-05T06:27:35.950Z,24.70
2023-05-05T06:30:02.739Z,24.30
2023-05-05T06:32:29.526Z,23.30
2023-05-05T06:34:56.322Z,23.50
2023-05-05T06:37:23.099Z,23.30
2023-05-05T06:39:49.759Z,23.30
2023-05-05T06:42:16.457Z,22.30
2023-05-05T06:44:43.139Z,22.80
2023-05-05T06:47:10.536Z,23.20
2023-05-05T06:49:37.174Z,23.70
2023-05-05T06:52:04.051Z,23.70
2023-05-05T06:54:30.821Z,22.40
2023-05-05T06:56:59.416Z,23.50
2023-05-05T06:59:27.188Z,24.70
2023-05-05T07:01:56.944Z,24.40
2023-05-05T07:04:23.664Z,24.70
2023-05-05T07:06:50.414Z,25.70
2023-05-05T07:09:18.546Z,24.90
2023-05-05T07:11:46.385Z,24.70
2023-05-05T07:14:13.185Z,25.90
2023-05-05T07:16:42.447Z,26.60
2023-05-05T07:19:09.263Z,25.60
2023-05-05T07:21:36.701Z,25.90
2023-05-05T07:24:04.114Z,25.40
2023-05-05T07:26:31.100Z,26.20
2023-05-05T07:28:58.926Z,26.40
2023-05-05T07:31:26.715Z,26.00
2023-05-05T07:33:53.956Z,25.20
2023-05-05T07:36:20.856Z,23.70
2023-05-05T07:38:47.612Z,25.90
2023-05-05T07:41:14.440Z,26.10
2023-05-05T07:43:44.269Z,25.10
2023-05-05T07:46:11.564Z,26.00
2023-05-05T07:48:42.228Z,25.10
2023-05-05T07:51:09.418Z,25.20
2023-05-05T07:53:36.757Z,25.00
2023-05-05T07:56:04.777Z,24.60
2023-05-05T07:58:31.657Z,24.90
2023-05-05T08:00:58.638Z,25.60
2023-05-05T08:03:27.944Z,25.50
2023-05-05T08:05:55.781Z,25.00
2023-05-05T08:08:26.943Z,24.50
2023-05-05T08:10:54.498Z,25.50
2023-05-05T08:13:21.248Z,25.60
2023-05-05T08:15:47.989Z,24.90
2023-05-05T08:18:15.053Z,25.00
2023-05-05T08:20:41.838Z,24.00
2023-05-05T08:23:08.624Z,24.40
2023-05-05T08:25:35.404Z,24.20
2023-05-05T08:28:02.243Z,24.50
2023-05-05T08:30:29.129Z,24.70
2023-05-05T08:32:56.454Z,24.50
2023-05-05T08:35:24.048Z,24.60
2023-05-05T08:37:51.934Z,24.30
2023-05-05T08:40:21.286Z,25.00
2023-05-05T08:42:48.332Z,24.00
2023-05-05T08:45:15.898Z,24.70
2023-05-05T08:47:43.633Z,23.80
2023-05-05T08:50:11.375Z,24.20
2023-05-05T08:52:40.632Z,24.00
2023-05-05T08:55:13.401Z,23.80
2023-05-05T08:57:48.867Z,24.30
2023-05-05T09:00:18.893Z,24.50
2023-05-05T09:02:46.913Z,24.60
2023-05-05T09:05:15.419Z,24.30
2023-05-05T09:07:43.770Z,24.90
2023-05-05T09:10:12.218Z,25.10
2023-05-05T09:12:42.548Z,24.70
2023-05-05T09:15:11.602Z,24.60
2023-05-05T09:17:39.628Z,24.10
2023-05-05T09:20:09.196Z,24.10
2023-05-05T09:22:39.803Z,24.20
2023-05-05T09:25:08.998Z,24.10
2023-05-05T09:27:43.605Z,23.50
2023-05-05T09:30:12.160Z,24.10
2023-05-05T09:32:48.990Z,24.00
2023-05-05T09:35:17.012Z,24.30
2023-05-05T09:37:44.325Z,23.50
2023-05-05T09:40:13.631Z,23.50
2023-05-05T09:42:41.267Z,24.00
2023-05-05T09:45:28.469Z,23.70
2023-05-05T09:47:59.641Z,23.60
2023-05-05T09:50:30.205Z,23.70
2023-05-05T09:53:02.398Z,23.90
2023-05-05T09:55:31.389Z,23.30
2023-05-05T09:58:18.414Z,23.20
2023-05-05T10:00:46.382Z,22.80
2023-05-05T10:03:13.700Z,21.80
2023-05-05T10:05:50.674Z,22.00
2023-05-05T10:08:19.759Z,22.40
2023-05-05T10:10:51.992Z,22.40
2023-05-05T10:13:20.814Z,22.60
2023-05-05T10:15:51.078Z,23.30
2023-05-05T10:18:20.024Z,23.40
2023-05-05T10:20:51.016Z,23.40
2023-05-05T10:23:20.624Z,23.40
2023-05-05T10:25:54.482Z,23.40
2023-05-05T10:28:31.659Z,23.40
2023-05-05T10:31:00.986Z,23.40
2023-05-05T10:33:36.315Z,23.40
2023-05-05T10:36:06.582Z,23.50
2023-05-05T10:38:36.265Z,23.40
2023-05-05T10:41:05.232Z,23.40
2023-05-05T10:43:32.174Z,23.40
2023-05-05T10:45:59.785Z,23.30
2023-05-05T10:48:39.840Z,23.40
2023-05-05T10:51:38.751Z,23.30
2023-05-05T10:54:20.909Z,23.30
2023-05-05T10:56:47.980Z,23.20
2023-05-05T10:59:37.789Z,23.20
2023-05-05T11:02:23.974Z,23.30
2023-05-05T11:05:10.780Z,23.30
2023-05-05T11:07:37.862Z,23.20
2023-05-05T11:10:06.478Z,23.10
2023-05-05T11:12:52.237Z,23.10
2023-05-05T11:15:38.071Z,23.10
2023-05-05T11:18:07.978Z,23.10
2023-05-05T11:20:40.935Z,23.10
2023-05-05T11:23:07.843Z,23.10
2023-05-05T11:25:38.159Z,23.00
2023-05-05T11:28:17.313Z,23.00
2023-05-05T11:30:56.949Z,23.00
2023-05-05T11:33:30.588Z,23.00
2023-05-05T11:36:05.720Z,22.90
2023-05-05T11:38:39.314Z,22.90
2023-05-05T11:41:27.833Z,22.80
2023-05-05T11:44:15.389Z,22.70
2023-05-05T11:47:04.999Z,22.80
2023-05-05T11:49:35.989Z,22.60
2023-05-05T11:52:06.500Z,22.60
2023-05-05T11:54:38.214Z,22.60
2023-05-05T11:57:08.607Z,22.50
2023-05-05T11:59:37.295Z,22.30
2023-05-05T12:02:04.847Z,22.40
2023-05-05T12:04:32.095Z,22.20
2023-05-05T12:06:59.300Z,22.30
2023-05-05T12:09:27.326Z,22.30
2023-05-05T12:11:58.752Z,22.10
2023-05-05T12:14:26.092Z,21.90
2023-05-05T12:17:01.296Z,22.00
2023-05-05T12:19:32.818Z,22.10
2023-05-05T12:22:03.747Z,22.10
2023-05-05T12:24:31.004Z,22.10
2023-05-05T12:27:12.145Z,22.00
2023-05-05T12:29:39.218Z,21.90
2023-05-05T12:32:06.202Z,21.70
2023-05-05T12:34:34.292Z,21.80
2023-05-05T12:37:01.465Z,21.80
2023-05-05T12:39:36.623Z,21.80
2023-05-05T12:42:06.622Z,21.80
2023-05-05T12:44:37.405Z,21.80
2023-05-05T12:47:04.815Z,21.80
2023-05-05T12:49:34.449Z,21.80
2023-05-05T12:52:01.588Z,21.70
2023-05-05T12:54:31.237Z,21.70
2023-05-05T12:57:00.429Z,21.70
2023-05-05T12:59:27.498Z,21.60
2023-05-05T13:01:59.960Z,21.50
2023-05-05T13:04:28.157Z,21.50
2023-05-05T13:07:15.203Z,21.40
2023-05-05T13:09:42.402Z,21.50
2023-05-05T13:12:11.944Z,21.40
2023-05-05T13:14:39.513Z,21.40
2023-05-05T13:17:06.540Z,21.30
2023-05-05T13:19:35.533Z,21.30
2023-05-05T13:22:02.325Z,21.30
2023-05-05T13:24:42.368Z,21.20
2023-05-05T13:27:16.498Z,21.30
2023-05-05T13:29:43.729Z,21.20
2023-05-05T13:32:10.546Z,21.20
2023-05-05T13:34:39.135Z,21.10
2023-05-05T13:37:06.189Z,21.10
2023-05-05T13:39:32.888Z,21.00
2023-05-05T13:41:59.678Z,20.90
2023-05-05T13:44:26.430Z,21.00
2023-05-05T13:46:53.248Z,21.00
2023-05-05T13:49:20.260Z,21.10
2023-05-05T13:51:47.315Z,21.00
2023-05-05T13:54:16.901Z,20.90
2023-05-05T13:56:43.921Z,21.00
2023-05-05T13:59:10.676Z,21.00
2023-05-05T14:01:37.662Z,20.90
2023-05-05T14:04:05.926Z,20.80
2023-05-05T14:06:33.559Z,20.50
2023-05-05T14:09:00.619Z,20.50
2023-05-05T14:11:27.435Z,20.70
2023-05-05T14:13:54.132Z,20.60
2023-05-05T14:16:21.072Z,20.40
2023-05-05T14:18:47.921Z,20.40
2023-05-05T14:21:14.574Z,20.40
2023-05-05T14:23:41.343Z,20.10
2023-05-05T14:26:08.985Z,20.10
2023-05-05T14:28:36.039Z,20.20
2023-05-05T14:31:02.771Z,20.30
2023-05-05T14:33:29.551Z,20.20
2023-05-05T14:35:57.329Z,20.30
2023-05-05T14:38:24.039Z,20.10
2023-05-05T14:40:50.784Z,20.00
2023-05-05T14:43:17.546Z,20.00
2023-05-05T14:45:44.405Z,20.00
2023-05-05T14:48:11.137Z,20.20
2023-05-05T14:50:39.859Z,20.10
2023-05-05T14:53:06.637Z,20.20
2023-05-05T14:55:33.431Z,20.20
2023-05-05T14:58:00.169Z,20.00
2023-05-05T15:00:27.085Z,19.90
2023-05-05T15:02:53.917Z,20.00
2023-05-05T15:05:20.743Z,20.00
2023-05-05T15:07:47.507Z,19.80
2023-05-05T15:10:16.567Z,20.00
2023-05-05T15:12:43.504Z,20.00
2023-05-05T15:15:11.759Z,20.00
2023-05-05T15:17:38.866Z,20.00
2023-05-05T15:20:06.788Z,20.00
2023-05-05T15:22:33.934Z,20.00
2023-05-05T15:25:01.234Z,20.00
2023-05-05T15:27:30.078Z,19.90
2023-05-05T15:29:56.864Z,19.90
2023-05-05T15:32:23.683Z,19.90
2023-05-05T15:34:50.680Z,19.90
2023-05-05T15:37:17.538Z,19.90
2023-05-05T15:39:44.316Z,19.90
2023-05-05T15:42:11.194Z,19.80
2023-05-05T15:44:38.037Z,19.80
2023-05-05T15:47:05.410Z,20.00
2023-05-05T15:49:32.233Z,20.00
2023-05-05T15:51:59.057Z,20.10
2023-05-05T15:54:25.948Z,20.10
2023-05-05T15:56:52.830Z,19.90
2023-05-05T15:59:19.567Z,20.10
2023-05-05T16:01:47.021Z,20.00
2023-05-05T16:04:14.220Z,20.00
2023-05-05T16:06:41.222Z,20.10
2023-05-05T16:09:07.896Z,19.80
2023-05-05T16:11:34.961Z,19.80
2023-05-05T16:14:01.710Z,20.00
2023-05-05T16:16:28.845Z,20.00
2023-05-05T16:18:55.613Z,20.10
2023-05-05T16:21:22.344Z,20.10
2023-05-05T16:23:49.078Z,19.80
2023-05-05T16:26:16.251Z,19.90
2023-05-05T16:28:43.002Z,19.80
2023-05-05T16:31:10.885Z,19.90
2023-05-05T16:33:43.507Z,19.70
2023-05-05T16:36:11.912Z,19.70
2023-05-05T16:38:39.690Z,19.90
2023-05-05T16:41:07.049Z,19.70
2023-05-05T16:43:34.282Z,19.80
2023-05-05T16:46:01.033Z,19.90
2023-05-05T16:48:27.771Z,19.70
2023-05-05T16:50:57.152Z,19.90
2023-05-05T16:53:24.421Z,20.00
2023-05-05T16:55:52.576Z,19.90
2023-05-05T16:58:20.336Z,20.00
2023-05-05T17:00:48.995Z,20.00
2023-05-05T17:03:20.233Z,20.00
2023-05-05T17:05:49.849Z,20.10
2023-05-05T17:08:17.152Z,19.90
2023-05-05T17:10:44.955Z,19.90
2023-05-05T17:13:12.921Z,19.80
2023-05-05T17:15:40.499Z,19.90
2023-05-05T17:18:08.257Z,19.90
2023-05-05T17:20:35.114Z,19.90
2023-05-05T17:23:05.029Z,19.70
2023-05-05T17:25:32.144Z,19.80
2023-05-05T17:27:58.945Z,19.90
2023-05-05T17:30:26.342Z,19.90
2023-05-05T17:32:53.575Z,19.80
2023-05-05T17:35:21.267Z,19.90
2023-05-05T17:37:48.045Z,18.80
2023-05-05T17:40:14.782Z,18.60
2023-05-05T17:42:41.581Z,18.50
2023-05-05T17:45:09.202Z,17.80
2023-05-05T17:47:36.285Z,17.70
2023-05-05T17:50:03.526Z,17.60
2023-05-05T17:52:30.311Z,17.70
2023-05-05T17:54:57.159Z,17.70
2023-05-05T17:57:24.001Z,17.80
2023-05-05T17:59:51.936Z,17.70
2023-05-05T18:02:19.082Z,17.60
2023-05-05T18:04:46.392Z,17.90
2023-05-05T18:07:14.595Z,17.70
2023-05-05T18:09:41.620Z,17.60
2023-05-05T18:12:08.316Z,17.60
2023-05-05T18:14:35.076Z,17.60
2023-05-05T18:17:01.789Z,17.50
2023-05-05T18:19:28.520Z,17.10
2023-05-05T18:21:55.363Z,16.90
2023-05-05T18:24:22.238Z,17.00
2023-05-05T18:26:50.905Z,17.50
2023-05-05T18:29:18.821Z,17.80
2023-05-05T18:31:48.380Z,18.00
2023-05-05T18:34:16.773Z,18.10
2023-05-05T18:36:43.537Z,18.30
2023-05-05T18:39:10.276Z,18.40
2023-05-05T18:41:37.273Z,18.20
2023-05-05T18:44:04.045Z,18.20
2023-05-05T18:46:30.911Z,18.30
2023-05-05T18:48:58.733Z,18.40
2023-05-05T18:51:26.200Z,18.30
2023-05-05T18:53:53.259Z,18.40
2023-05-05T18:56:20.063Z,18.60
2023-05-05T18:58:47.878Z,18.80
2023-05-05T19:01:14.793Z,18.70
2023-05-05T19:03:45.791Z,18.30
2023-05-05T19:06:12.752Z,18.50
2023-05-05T19:08:39.529Z,18.60
2023-05-05T19:11:06.362Z,18.60
2023-05-05T19:13:33.009Z,18.70
2023-05-05T19:15:59.923Z,18.70
2023-05-05T19:18:27.029Z,18.70
2023-05-05T19:20:53.711Z,18.40
2023-05-05T19:23:20.481Z,18.00
2023-05-05T19:25:47.218Z,17.80
2023-05-05T19:28:13.969Z,17.90
2023-05-05T19:30:40.617Z,18.10
2023-05-05T19:33:07.387Z,18.20
2023-05-05T19:35:34.065Z,18.30
2023-05-05T19:38:00.900Z,18.20
2023-05-05T19:40:27.659Z,18.10
2023-05-05T19:42:54.376Z,18.40
2023-05-05T19:45:21.368Z,18.30
2023-05-05T19:47:48.163Z,18.30
2023-05-05T19:50:17.634Z,18.40
2023-05-05T19:52:44.392Z,18.20
2023-05-05T19:55:11.293Z,18.20
2023-05-05T19:57:38.120Z,17.90
2023-05-05T20:00:05.529Z,18.00
2023-05-05T20:02:35.425Z,18.20
2023-05-05T20:05:04.926Z,17.90
2023-05-05T20:07:32.701Z,17.80
2023-05-05T20:10:00.687Z,18.00
2023-05-05T20:12:27.379Z,18.10
2023-05-05T20:14:54.210Z,18.30
2023-05-05T20:17:21.452Z,18.20
2023-05-05T20:19:49.335Z,18.10
2023-05-05T20:22:16.231Z,17.90
2023-05-05T20:24:42.966Z,17.80
2023-05-05T20:27:09.822Z,17.70
2023-05-05T20:29:36.549Z,17.60
2023-05-05T20:32:06.105Z,17.80
2023-05-05T20:34:32.904Z,17.50
2023-05-05T20:36:59.718Z,17.00
2023-05-05T20:39:26.758Z,15.50
2023-05-05T20:41:53.412Z,15.10
2023-05-05T20:44:20.044Z,14.70
2023-05-05T20:46:47.472Z,14.60
2023-05-05T20:49:14.136Z,14.70
2023-05-05T20:51:41.891Z,14.50
2023-05-05T20:54:10.092Z,14.50
2023-05-05T20:56:36.778Z,14.40
2023-05-05T20:59:04.531Z,14.40
2023-05-05T21:01:31.638Z,14.40
2023-05-05T21:04:00.312Z,14.20
2023-05-05T21:06:26.991Z,14.30
2023-05-05T21:08:53.932Z,14.10
2023-05-05T21:11:21.460Z,14.00
2023-05-05T21:13:48.212Z,13.90
2023-05-05T21:16:14.915Z,13.80
2023-05-05T21:18:46.520Z,13.70
2023-05-05T21:21:14.375Z,13.70
2023-05-05T21:23:41.093Z,13.60
2023-05-05T21:26:07.850Z,13.50
2023-05-05T21:28:34.468Z,13.50
2023-05-05T21:31:20.401Z,13.40
2023-05-05T21:33:47.929Z,13.40
2023-05-05T21:36:19.003Z,13.40
2023-05-05T21:38:45.816Z,13.30
2023-05-05T21:41:12.808Z,13.30
2023-05-05T21:43:39.492Z,13.20
2023-05-05T21:46:06.434Z,13.00
2023-05-05T21:48:33.228Z,12.90
2023-05-05T21:51:01.034Z,13.00
2023-05-05T21:53:27.840Z,12.90
2023-05-05T21:55:55.156Z,12.90
2023-05-05T21:58:24.508Z,12.90
2023-05-05T22:00:51.320Z,12.90
2023-05-05T22:03:18.223Z,12.70
2023-05-05T22:05:45.053Z,12.70
2023-05-05T22:08:11.732Z,12.80
2023-05-05T22:10:39.412Z,12.70
2023-05-05T22:13:06.186Z,12.60
2023-05-05T22:15:45.431Z,12.70
2023-05-05T22:18:13.223Z,12.60
2023-05-05T22:20:40.647Z,12.60
2023-05-05T22:23:07.393Z,12.50
2023-05-05T22:25:34.128Z,12.50
2023-05-05T22:28:00.806Z,12.50
2023-05-05T22:30:27.399Z,12.50
2023-05-05T22:32:55.001Z,12.50
2023-05-05T22:35:21.845Z,12.50
2023-05-05T22:37:48.556Z,12.50
2023-05-05T22:40:15.448Z,12.50
2023-05-05T22:42:42.269Z,12.50
2023-05-05T22:45:09.721Z,12.50
2023-05-05T22:47:36.834Z,12.50
2023-05-05T22:50:03.640Z,12.50
2023-05-05T22:52:30.570Z,12.50
2023-05-05T22:54:57.333Z,12.60
2023-05-05T22:57:24.468Z,12.60
2023-05-05T22:59:51.442Z,12.60
2023-05-05T23:02:18.227Z,12.50
2023-05-05T23:04:45.217Z,12.60
2023-05-05T23:07:12.572Z,12.60
2023-05-05T23:09:39.428Z,12.50
2023-05-05T23:12:06.348Z,12.50
2023-05-05T23:14:33.005Z,12.60
2023-05-05T23:16:59.833Z,12.50
2023-05-05T23:19:28.952Z,12.50
2023-05-05T23:21:55.645Z,12.50
2023-05-05T23:24:22.446Z,12.40
2023-05-05T23:26:49.149Z,12.50
2023-05-05T23:29:15.825Z,12.50
2023-05-05T23:31:42.504Z,12.40
2023-05-05T23:34:09.270Z,12.30
2023-05-05T23:36:36.014Z,12.30
2023-05-05T23:39:02.872Z,12.30
2023-05-05T23:41:29.595Z,12.30
2023-05-05T23:43:56.786Z,12.30
2023-05-05T23:46:24.078Z,12.30
2023-05-05T23:48:51.308Z,12.20
2023-05-05T23:51:18.137Z,12.20
2023-05-05T23:53:44.871Z,12.30
2023-05-05T23:56:11.892Z,12.30
2023-05-05T23:58:38.695Z,12.30
